Time;durP1;ratioP1;P1;durP2;ratioP2;P2;SDS_P1;SDS_P2;PMS_P1;PMS_P2;Temp;Humidity;BMP_temperature;BMP_pressure;BME280_temperature;BME280_humidity;BME280_pressure;Samples;Min_cycle;Max_cycle;Signal;HPM_P1;HPM_P2
2022/07/06 00:01:27;;;;;;;7.45;4.30;;;24.20;74.10;;;;;;5115981;28;20039;-69
2022/07/06 00:03:53;;;;;;;7.25;4.38;;;24.10;77.20;;;;;;5115840;28;20445;-67
2022/07/06 00:06:18;;;;;;;7.43;5.43;;;24.10;77.10;;;;;;5114709;28;20073;-67
2022/07/06 00:08:44;;;;;;;8.25;5.47;;;24.30;77.20;;;;;;5116060;28;20046;-67
2022/07/06 00:11:10;;;;;;;7.28;4.47;;;24.10;74.20;;;;;;5115846;28;20040;-68
2022/07/06 00:13:36;;;;;;;6.63;4.45;;;24.10;73.80;;;;;;5115902;28;20043;-69
2022/07/06 00:16:02;;;;;;;9.32;4.65;;;24.10;77.20;;;;;;5113396;28;20405;-68
2022/07/06 00:18:27;;;;;;;5.72;3.92;;;24.30;74.00;;;;;;5115877;28;20120;-68
2022/07/06 00:20:53;;;;;;;7.25;4.03;;;24.00;77.40;;;;;;5097183;28;20047;-68
2022/07/06 00:23:19;;;;;;;7.25;4.00;;;24.10;77.30;;;;;;5115614;28;20047;-68
2022/07/06 00:25:45;;;;;;;6.97;3.30;;;24.30;77.40;;;;;;5096226;28;20057;-65
2022/07/06 00:28:10;;;;;;;7.13;3.63;;;24.30;74.20;;;;;;5115043;28;20086;-68
2022/07/06 00:30:36;;;;;;;6.38;3.72;;;24.30;77.20;;;;;;5115423;28;20047;-69
2022/07/06 00:33:02;;;;;;;5.70;2.88;;;24.20;77.10;;;;;;5096848;28;20047;-68
2022/07/06 00:35:27;;;;;;;5.53;3.00;;;24.20;77.80;;;;;;5115571;28;20066;-68
2022/07/06 00:37:53;;;;;;;4.63;2.90;;;24.10;74.20;;;;;;5092213;28;20462;-68
2022/07/06 00:40:19;;;;;;;6.40;3.17;;;24.20;77.30;;;;;;5101896;28;20086;-68
2022/07/06 00:42:46;;;;;;;5.20;3.13;;;24.30;77.30;;;;;;5115397;28;20104;-67
2022/07/06 00:45:12;;;;;;;6.90;4.45;;;24.00;74.30;;;;;;5115386;28;20039;-67
2022/07/06 00:47:39;;;;;;;8.75;5.70;;;24.00;77.20;;;;;;5113745;28;20043;-67
2022/07/06 00:50:14;;;;;;;7.82;5.15;;;23.90;77.20;;;;;;5113774;28;20055;-69
2022/07/06 00:53:02;;;;;;;7.15;4.60;;;24.00;74.00;;;;;;5114923;28;20473;-68
2022/07/06 00:55:29;;;;;;;6.65;4.40;;;24.00;77.20;;;;;;5112085;28;20048;-69
2022/07/06 00:57:55;;;;;;;6.55;4.15;;;23.90;76.90;;;;;;5083758;28;20042;-66
2022/07/06 01:00:23;;;;;;;9.98;5.60;;;24.20;74.10;;;;;;5064016;28;20052;-68
2022/07/06 01:02:48;;;;;;;7.57;5.13;;;24.10;74.50;;;;;;5076866;28;20393;-67
2022/07/06 01:05:14;;;;;;;6.65;4.80;;;24.10;74.20;;;;;;5076171;28;20036;-68
2022/07/06 01:07:44;;;;;;;7.32;4.70;;;24.10;77.50;;;;;;5097274;28;20571;-68
2022/07/06 01:10:12;;;;;;;9.55;4.93;;;24.20;74.70;;;;;;5112371;28;20040;-68
2022/07/06 01:12:39;;;;;;;5.97;4.30;;;23.80;76.90;;;;;;5114544;28;20044;-68
2022/07/06 01:15:07;;;;;;;8.93;4.35;;;24.30;78.00;;;;;;5107546;28;20050;-68
2022/07/06 01:17:33;;;;;;;6.13;4.00;;;24.10;77.40;;;;;;5075506;28;20115;-68
2022/07/06 01:20:17;;;;;;;5.88;3.70;;;24.20;74.20;;;;;;5091750;28;20128;-68
2022/07/06 01:22:43;;;;;;;7.03;4.15;;;24.10;77.30;;;;;;5092254;28;20066;-68
2022/07/06 01:25:10;;;;;;;5.90;3.40;;;;;;;;;;5094140;28;20056;-67
2022/07/06 01:27:38;;;;;;;7.07;3.65;;;23.80;77.00;;;;;;5093594;28;20468;-69
2022/07/06 01:30:08;;;;;;;7.43;3.22;;;23.90;77.00;;;;;;5092361;28;20117;-68
2022/07/06 01:32:34;;;;;;;5.88;3.20;;;24.10;74.00;;;;;;5093895;28;20044;-68
2022/07/06 01:35:00;;;;;;;6.78;3.40;;;24.00;74.20;;;;;;5092916;28;20058;-68
2022/07/06 01:37:26;;;;;;;5.93;2.88;;;24.00;74.30;;;;;;5093823;28;20374;-67
2022/07/06 01:39:51;;;;;;;4.72;3.00;;;24.20;77.50;;;;;;5092889;28;20040;-67
2022/07/06 01:42:17;;;;;;;5.72;3.25;;;24.10;74.40;;;;;;5093598;28;20125;-68
2022/07/06 01:44:44;;;;;;;5.53;3.42;;;24.20;74.30;;;;;;5093401;28;20036;-66
2022/07/06 01:47:10;;;;;;;6.10;3.03;;;;;;;;;;5076255;28;20048;-67
2022/07/06 01:49:36;;;;;;;6.68;3.10;;;24.10;77.60;;;;;;5093248;28;20051;-68
2022/07/06 01:52:02;;;;;;;5.03;2.97;;;24.00;77.50;;;;;;5091387;28;20048;-68
2022/07/06 01:54:28;;;;;;;11.68;2.92;;;23.90;74.10;;;;;;5091239;28;20040;-68
2022/07/06 01:56:53;;;;;;;6.57;3.40;;;24.20;74.50;;;;;;5079314;28;20040;-68
2022/07/06 01:59:19;;;;;;;7.53;4.55;;;23.90;74.00;;;;;;5090331;28;20040;-68
2022/07/06 02:01:45;;;;;;;7.00;4.22;;;24.00;77.40;;;;;;5091199;28;20040;-68
2022/07/06 02:04:10;;;;;;;6.15;3.65;;;24.00;74.20;;;;;;5094054;28;20122;-68
2022/07/06 02:06:36;;;;;;;6.38;4.00;;;23.90;77.10;;;;;;5093545;28;20040;-67
2022/07/06 02:09:03;;;;;;;5.97;3.10;;;23.90;73.90;;;;;;5108839;28;20109;-66
2022/07/06 02:11:29;;;;;;;5.57;3.30;;;24.10;77.20;;;;;;5108360;28;20036;-67
2022/07/06 02:13:55;;;;;;;9.30;3.30;;;;;;;;;;5092849;28;20051;-67
2022/07/06 02:16:20;;;;;;;7.57;2.97;;;23.90;77.30;;;;;;5092262;28;20406;-67
2022/07/06 02:18:46;;;;;;;9.20;3.35;;;23.80;77.10;;;;;;5092234;28;20048;-68
2022/07/06 02:21:12;;;;;;;6.60;3.22;;;24.10;74.30;;;;;;5095981;28;20055;-67
2022/07/06 02:23:38;;;;;;;7.32;2.80;;;23.90;77.30;;;;;;5112670;28;20480;-68
2022/07/06 02:26:04;;;;;;;6.30;3.65;;;24.00;77.40;;;;;;5113668;28;20397;-67
2022/07/06 02:28:29;;;;;;;9.85;6.32;;;23.70;77.10;;;;;;5114173;28;20051;-68
2022/07/06 02:30:55;;;;;;;9.20;5.93;;;23.90;74.30;;;;;;5113417;28;20039;-68
2022/07/06 02:33:21;;;;;;;7.97;6.43;;;23.60;77.10;;;;;;5111916;28;20181;-67
2022/07/06 02:35:46;;;;;;;9.35;6.30;;;23.90;74.20;;;;;;5091319;28;20071;-68
2022/07/06 02:38:12;;;;;;;9.77;6.53;;;23.90;77.30;;;;;;5093452;28;20047;-67
2022/07/06 02:40:38;;;;;;;9.80;6.75;;;23.60;77.10;;;;;;5089096;28;20047;-68
2022/07/06 02:43:04;;;;;;;9.13;6.88;;;23.80;74.20;;;;;;5112852;28;20048;-68
2022/07/06 02:45:30;;;;;;;7.88;6.32;;;23.80;77.70;;;;;;5094216;28;20052;-68
2022/07/06 02:47:57;;;;;;;9.35;6.55;;;24.00;77.30;;;;;;5113826;28;20144;-68
2022/07/06 02:50:23;;;;;;;9.23;5.90;;;23.70;74.20;;;;;;5113352;28;20086;-67
2022/07/06 02:52:49;;;;;;;10.50;5.72;;;24.00;74.50;;;;;;5111666;28;20048;-68
2022/07/06 02:55:15;;;;;;;7.65;5.28;;;23.80;77.20;;;;;;5111822;28;20042;-67
2022/07/06 02:57:41;;;;;;;7.30;5.32;;;23.60;74.10;;;;;;5109360;28;20629;-67
2022/07/06 03:00:07;;;;;;;9.43;5.18;;;24.10;77.70;;;;;;5113270;28;20067;-69
2022/07/06 03:02:33;;;;;;;9.05;4.85;;;23.90;77.40;;;;;;5112032;28;20377;-67
2022/07/06 03:04:59;;;;;;;7.22;4.90;;;23.90;74.20;;;;;;5109153;28;20051;-68
2022/07/06 03:07:25;;;;;;;6.13;4.40;;;23.50;77.20;;;;;;5102335;28;20050;-67
2022/07/06 03:09:50;;;;;;;6.07;4.35;;;23.90;77.50;;;;;;5112258;28;20043;-67
2022/07/06 03:12:16;;;;;;;12.18;4.43;;;23.90;74.40;;;;;;5113302;28;20135;-68
2022/07/06 03:14:42;;;;;;;6.97;4.43;;;23.90;74.30;;;;;;5098251;28;20480;-68
2022/07/06 03:17:08;;;;;;;7.70;4.38;;;23.60;77.10;;;;;;5115895;28;20080;-68
2022/07/06 03:19:34;;;;;;;8.00;3.95;;;23.70;77.30;;;;;;5117129;28;20043;-67
2022/07/06 03:21:59;;;;;;;6.40;4.35;;;23.80;74.40;;;;;;5116955;28;20052;-68
2022/07/06 03:24:25;;;;;;;6.60;3.90;;;23.90;74.30;;;;;;5097894;28;20051;-68
2022/07/06 03:26:51;;;;;;;7.45;3.83;;;23.70;74.30;;;;;;5115934;28;20396;-68
2022/07/06 03:29:17;;;;;;;6.57;3.97;;;23.70;74.10;;;;;;5116944;28;20500;-68
2022/07/06 03:31:42;;;;;;;6.80;3.55;;;23.70;74.30;;;;;;5095018;28;20040;-68
2022/07/06 03:34:08;;;;;;;5.38;3.55;;;24.00;77.40;;;;;;5096454;28;20071;-67
2022/07/06 03:36:34;;;;;;;8.70;3.45;;;23.80;77.30;;;;;;5094876;28;20044;-65
2022/07/06 03:38:59;;;;;;;7.78;3.47;;;23.70;77.50;;;;;;5116994;28;20048;-68
2022/07/06 03:41:25;;;;;;;6.90;3.38;;;23.70;74.30;;;;;;5108501;28;20076;-69
2022/07/06 03:43:51;;;;;;;5.70;3.10;;;23.80;74.20;;;;;;5095904;28;20046;-67
2022/07/06 03:46:16;;;;;;;6.55;3.28;;;23.70;74.30;;;;;;5108264;28;20046;-68
2022/07/06 03:48:42;;;;;;;5.68;2.80;;;23.70;77.10;;;;;;5115332;28;20111;-68
2022/07/06 03:51:10;;;;;;;5.95;2.90;;;23.70;74.20;;;;;;5116465;28;20040;-68
2022/07/06 03:53:35;;;;;;;9.23;2.97;;;23.60;77.10;;;;;;5115992;28;20048;-68
2022/07/06 03:58:46;;;;;;;11.13;2.63;;;24.00;73.30;;;;;;5115501;28;20175;-67
2022/07/06 04:01:11;;;;;;;7.05;2.97;;;23.80;77.20;;;;;;5097271;28;20477;-68
2022/07/06 04:03:37;;;;;;;6.15;2.70;;;23.60;77.10;;;;;;5098083;28;20075;-68
2022/07/06 04:06:03;;;;;;;6.40;2.55;;;23.80;77.20;;;;;;5115686;28;20486;-67
2022/07/06 04:08:28;;;;;;;5.57;2.50;;;23.50;76.80;;;;;;5096293;28;20051;-67
2022/07/06 04:10:54;;;;;;;5.47;2.30;;;23.70;74.00;;;;;;5115963;28;20039;-68
2022/07/06 04:13:20;;;;;;;5.15;2.10;;;23.90;74.20;;;;;;5115603;28;20499;-68
2022/07/06 04:15:46;;;;;;;3.28;1.77;;;23.70;77.00;;;;;;5115759;28;20039;-68
2022/07/06 04:18:11;;;;;;;5.80;2.22;;;23.60;74.00;;;;;;5115184;28;20470;-68
2022/07/06 04:20:37;;;;;;;5.88;2.13;;;23.50;73.90;;;;;;5114597;28;20463;-68
2022/07/06 04:23:03;;;;;;;4.60;2.05;;;23.70;74.00;;;;;;5114101;28;20055;-67
2022/07/06 04:25:28;;;;;;;5.88;2.10;;;23.80;76.90;;;;;;5115474;28;20048;-67
2022/07/06 04:27:54;;;;;;;4.15;1.80;;;23.50;77.00;;;;;;5115379;28;20050;-67
2022/07/06 04:30:20;;;;;;;5.05;2.03;;;23.60;73.80;;;;;;5114771;28;20040;-67
2022/07/06 04:32:46;;;;;;;4.97;2.03;;;23.90;74.10;;;;;;5114827;28;20066;-68
2022/07/06 04:35:11;;;;;;;4.43;1.73;;;23.60;77.10;;;;;;5115215;28;20035;-67
2022/07/06 04:37:37;;;;;;;5.88;1.80;;;23.80;77.00;;;;;;5115562;28;20036;-67
2022/07/06 04:40:03;;;;;;;7.50;2.00;;;23.50;76.70;;;;;;5114885;28;20043;-67
2022/07/06 04:42:29;;;;;;;5.82;1.90;;;23.60;76.70;;;;;;5113974;28;20051;-67
2022/07/06 04:44:55;;;;;;;4.68;1.80;;;23.70;72.80;;;;;;5115301;28;20044;-67
2022/07/06 04:47:21;;;;;;;6.90;1.90;;;23.60;76.80;;;;;;5096822;28;20052;-67
2022/07/06 04:49:47;;;;;;;7.00;2.05;;;23.60;73.30;;;;;;5114980;28;20126;-68
2022/07/06 04:52:12;;;;;;;7.63;2.40;;;23.90;74.00;;;;;;5114313;28;20042;-68
2022/07/06 04:54:38;;;;;;;6.75;1.95;;;23.70;76.80;;;;;;5112726;28;20083;-68
2022/07/06 04:57:04;;;;;;;8.13;2.00;;;23.50;77.00;;;;;;5114754;28;20127;-67
2022/07/06 04:59:29;;;;;;;5.65;2.30;;;23.70;76.90;;;;;;5114833;28;20481;-67
2022/07/06 05:01:55;;;;;;;3.75;1.75;;;23.80;76.80;;;;;;5095615;28;20057;-67
2022/07/06 05:04:22;;;;;;;5.68;1.80;;;23.90;76.90;;;;;;5091031;28;20118;-66
2022/07/06 05:06:47;;;;;;;4.88;1.65;;;23.60;73.80;;;;;;5096531;28;20495;-67
2022/07/06 05:09:13;;;;;;;6.28;2.10;;;23.80;73.60;;;;;;5113399;28;20052;-67
2022/07/06 05:11:39;;;;;;;4.07;1.77;;;23.70;76.90;;;;;;5114784;28;20051;-67
2022/07/06 05:14:05;;;;;;;6.22;1.92;;;23.70;76.90;;;;;;5108100;28;20071;-67
2022/07/06 05:16:31;;;;;;;4.03;1.85;;;24.00;76.70;;;;;;5110329;28;20043;-66
2022/07/06 05:18:57;;;;;;;4.38;1.40;;;24.10;76.90;;;;;;5114396;28;20043;-67
2022/07/06 05:21:23;;;;;;;5.65;2.28;;;23.80;76.60;;;;;;5114325;28;20067;-67
2022/07/06 05:23:48;;;;;;;4.00;2.10;;;23.80;76.40;;;;;;5113421;28;20074;-67
2022/07/06 05:26:14;;;;;;;4.47;1.80;;;24.20;76.70;;;;;;5114088;28;20190;-68
2022/07/06 05:28:40;;;;;;;5.43;2.00;;;24.10;73.70;;;;;;5114584;28;20184;-67
2022/07/06 05:31:06;;;;;;;10.88;2.72;;;23.90;76.90;;;;;;5114207;28;20552;-67
2022/07/06 05:33:31;;;;;;;4.63;1.73;;;24.00;76.70;;;;;;5114093;28;20051;-68
2022/07/06 05:35:58;;;;;;;7.03;2.30;;;23.80;76.30;;;;;;5112334;28;20049;-66
2022/07/06 05:38:24;;;;;;;4.55;1.70;;;23.90;76.40;;;;;;5112774;28;20147;-66
2022/07/06 05:40:50;;;;;;;5.53;1.70;;;24.10;76.80;;;;;;5114328;28;20050;-68
2022/07/06 05:43:16;;;;;;;4.68;1.77;;;23.80;76.60;;;;;;5114397;28;20043;-67
2022/07/06 05:45:41;;;;;;;3.63;1.50;;;24.20;76.60;;;;;;5114305;28;20449;-66
2022/07/06 05:50:51;;;;;;;5.05;1.58;;;23.70;72.30;;;;;;5113324;28;20485;-67
2022/07/06 05:53:17;;;;;;;4.10;1.80;;;24.30;76.70;;;;;;5096268;28;20050;-67
2022/07/06 05:55:43;;;;;;;3.20;1.70;;;24.00;76.50;;;;;;5114472;28;20039;-67
2022/07/06 05:58:09;;;;;;;5.18;1.60;;;24.00;76.50;;;;;;5111061;28;20124;-67
2022/07/06 06:00:34;;;;;;;3.60;1.40;;;24.00;73.50;;;;;;5113557;28;20063;-67
2022/07/06 06:03:00;;;;;;;4.43;1.55;;;24.20;74.70;;;;;;5113729;28;20054;-66
2022/07/06 06:05:26;;;;;;;4.63;1.40;;;24.10;73.50;;;;;;5095563;28;20058;-66
2022/07/06 06:07:52;;;;;;;2.97;1.30;;;24.20;76.50;;;;;;5111904;28;20039;-66
2022/07/06 06:10:18;;;;;;;3.08;1.40;;;23.90;76.30;;;;;;5113547;28;20532;-65
2022/07/06 06:12:44;;;;;;;4.30;1.63;;;24.00;76.30;;;;;;5102863;28;20044;-66
2022/07/06 06:15:10;;;;;;;2.35;1.17;;;24.20;73.40;;;;;;5093241;28;20502;-68
2022/07/06 06:17:37;;;;;;;3.45;1.58;;;24.20;76.50;;;;;;5093576;28;20088;-67
2022/07/06 06:20:05;;;;;;;3.60;1.35;;;24.70;76.20;;;;;;5061757;28;20048;-66
2022/07/06 06:22:49;;;;;;;3.10;1.30;;;24.50;75.80;;;;;;5088769;28;20054;-66
2022/07/06 06:25:18;;;;;;;2.72;1.23;;;24.70;75.80;;;;;;5108791;28;20423;-66
2022/07/06 06:27:44;;;;;;;5.35;1.40;;;24.70;75.70;;;;;;5092928;28;20485;-64
2022/07/06 06:30:10;;;;;;;5.30;1.40;;;24.60;73.30;;;;;;5093515;28;20048;-66
2022/07/06 06:32:37;;;;;;;4.45;1.30;;;24.60;75.50;;;;;;5083230;28;20046;-64
2022/07/06 06:35:03;;;;;;;3.80;1.65;;;24.70;72.70;;;;;;5111630;28;20052;-62
2022/07/06 06:37:29;;;;;;;3.33;1.27;;;24.60;75.50;;;;;;5113618;28;20051;-64
2022/07/06 06:39:55;;;;;;;2.10;1.10;;;24.60;75.60;;;;;;5113606;28;20043;-67
2022/07/06 06:42:21;;;;;;;4.07;1.50;;;;;;;;;;5100724;28;20052;-64
2022/07/06 06:44:46;;;;;;;3.63;1.42;;;24.60;75.60;;;;;;5109131;28;20043;-64
2022/07/06 06:47:12;;;;;;;4.18;1.00;;;24.70;72.70;;;;;;5113992;28;20358;-63
2022/07/06 06:49:38;;;;;;;3.92;1.13;;;24.70;72.00;;;;;;5117294;28;20481;-63
2022/07/06 06:52:04;;;;;;;2.53;1.00;;;24.50;75.40;;;;;;5117288;28;20047;-64
2022/07/06 06:54:30;;;;;;;4.28;1.15;;;24.50;75.50;;;;;;5115627;28;20049;-65
2022/07/06 06:56:56;;;;;;;3.88;1.40;;;24.60;72.60;;;;;;5100766;28;20055;-63
2022/07/06 06:59:22;;;;;;;2.70;1.17;;;24.60;72.20;;;;;;5097389;28;20056;-63
2022/07/06 07:01:48;;;;;;;2.75;1.40;;;24.60;72.70;;;;;;5083174;28;20044;-63
2022/07/06 07:04:14;;;;;;;3.40;1.13;;;24.40;75.50;;;;;;5115652;28;20477;-63
2022/07/06 07:06:40;;;;;;;4.32;1.08;;;24.70;72.50;;;;;;5096805;28;20051;-63
2022/07/06 07:09:06;;;;;;;3.58;1.20;;;24.40;75.70;;;;;;5096601;28;20546;-63
2022/07/06 07:11:32;;;;;;;5.00;1.20;;;24.60;75.80;;;;;;5065636;28;20048;-62
2022/07/06 07:13:57;;;;;;;4.15;1.30;;;24.30;75.50;;;;;;5115612;28;20047;-62
2022/07/06 07:16:24;;;;;;;4.22;1.35;;;24.80;73.00;;;;;;5096648;28;20035;-61
2022/07/06 07:18:50;;;;;;;3.38;1.30;;;24.50;72.70;;;;;;5082075;28;20048;-62
2022/07/06 07:21:16;;;;;;;4.90;1.45;;;24.40;73.00;;;;;;5116909;28;20105;-62
2022/07/06 07:23:42;;;;;;;3.05;1.15;;;24.40;72.60;;;;;;5102966;28;20056;-62
2022/07/06 07:26:08;;;;;;;3.33;1.20;;;24.50;73.10;;;;;;5086569;28;20144;-62
2022/07/06 07:28:33;;;;;;;3.47;1.20;;;24.60;72.90;;;;;;5116115;28;20059;-64
2022/07/06 07:30:59;;;;;;;3.72;1.30;;;24.50;73.10;;;;;;5115907;28;20039;-64
2022/07/06 07:33:25;;;;;;;4.85;1.40;;;24.50;76.00;;;;;;5068818;28;20048;-66
2022/07/06 07:35:52;;;;;;;3.38;1.13;;;;;;;;;;5096370;28;20444;-63
2022/07/06 07:38:17;;;;;;;8.20;1.35;;;24.60;71.50;;;;;;5115059;28;20046;-63
2022/07/06 07:40:43;;;;;;;1.10;0.75;;;24.60;76.20;;;;;;5086008;28;20459;-64
2022/07/06 07:43:09;;;;;;;5.20;1.20;;;24.50;73.20;;;;;;5114386;28;20493;-65
2022/07/06 07:45:34;;;;;;;3.13;1.50;;;24.40;76.40;;;;;;5115799;28;20442;-70
2022/07/06 07:48:00;;;;;;;3.22;1.10;;;24.40;73.30;;;;;;5096941;28;20055;-69
2022/07/06 07:50:26;;;;;;;2.50;1.00;;;24.50;76.60;;;;;;5115161;28;20074;-70
2022/07/06 07:52:52;;;;;;;3.97;1.05;;;24.60;73.50;;;;;;5097786;28;20130;-70
2022/07/06 07:55:18;;;;;;;2.15;1.30;;;24.50;76.30;;;;;;5115248;28;20049;-70
2022/07/06 07:57:44;;;;;;;2.20;0.90;;;24.70;76.50;;;;;;5115364;28;20473;-69
2022/07/06 08:00:10;;;;;;;3.60;1.30;;;24.50;76.40;;;;;;5114018;28;20401;-68
2022/07/06 08:02:36;;;;;;;4.45;1.13;;;24.50;72.90;;;;;;5101673;28;20051;-68
2022/07/06 08:05:02;;;;;;;3.45;1.42;;;24.70;76.20;;;;;;5097704;28;20549;-67
2022/07/06 08:07:28;;;;;;;7.18;1.00;;;24.60;76.20;;;;;;5096840;28;20043;-64
2022/07/06 08:09:54;;;;;;;5.75;1.25;;;24.90;73.10;;;;;;5097751;28;20504;-62
2022/07/06 08:12:20;;;;;;;3.33;1.40;;;25.10;75.90;;;;;;5097206;28;20047;-63
2022/07/06 08:14:46;;;;;;;4.95;1.55;;;25.20;76.20;;;;;;5116034;28;20047;-63
2022/07/06 08:17:11;;;;;;;5.53;1.20;;;25.30;73.10;;;;;;5103650;28;20125;-64
2022/07/06 08:19:37;;;;;;;7.82;1.60;;;25.50;72.80;;;;;;5112247;28;20074;-66
2022/07/06 08:22:06;;;;;;;3.78;1.13;;;25.70;73.10;;;;;;5096969;28;20039;-67
2022/07/06 08:24:35;;;;;;;3.85;1.20;;;25.40;72.90;;;;;;5115721;28;20048;-63
2022/07/06 08:27:02;;;;;;;4.70;1.20;;;25.40;73.10;;;;;;5097270;28;20043;-63
2022/07/06 08:29:27;;;;;;;3.85;1.38;;;25.40;73.10;;;;;;5096199;28;20477;-63
2022/07/06 08:31:53;;;;;;;5.30;1.63;;;25.10;76.10;;;;;;5096449;28;20040;-62
2022/07/06 08:34:19;;;;;;;3.35;1.40;;;25.20;73.00;;;;;;5114354;28;20043;-64
2022/07/06 08:36:45;;;;;;;5.53;1.40;;;25.30;73.10;;;;;;5115402;28;20040;-62
2022/07/06 08:39:10;;;;;;;6.68;1.75;;;25.60;76.80;;;;;;5095973;28;20767;-63
2022/07/06 08:41:36;;;;;;;4.20;1.70;;;25.20;73.20;;;;;;5115033;28;20084;-62
2022/07/06 08:44:02;;;;;;;4.53;1.60;;;25.40;73.10;;;;;;5096122;28;20043;-62
2022/07/06 08:46:31;;;;;;;5.00;1.50;;;25.40;73.20;;;;;;5115430;28;20078;-62
2022/07/06 08:48:57;;;;;;;5.10;1.50;;;25.60;72.50;;;;;;5096803;28;20055;-62
2022/07/06 08:51:24;;;;;;;3.42;1.40;;;25.70;73.00;;;;;;5112124;28;20039;-62
2022/07/06 08:53:50;;;;;;;5.40;1.55;;;25.70;72.90;;;;;;5114291;28;20087;-62
2022/07/06 08:56:16;;;;;;;3.60;1.52;;;25.70;75.70;;;;;;5112727;28;20547;-64
2022/07/06 08:58:42;;;;;;;4.13;1.58;;;25.80;72.50;;;;;;5109209;28;20051;-64
2022/07/06 09:01:11;;;;;;;4.30;1.50;;;25.80;72.90;;;;;;5094726;28;20386;-64
2022/07/06 09:03:41;;;;;;;5.53;1.95;;;25.70;75.60;;;;;;5076303;28;20413;-64
2022/07/06 09:06:07;;;;;;;5.72;1.70;;;25.70;71.50;;;;;;5088239;28;20086;-64
2022/07/06 09:08:35;;;;;;;4.00;1.48;;;25.80;72.80;;;;;;5095499;28;20504;-63
2022/07/06 09:11:00;;;;;;;4.05;1.45;;;25.90;73.10;;;;;;5078908;28;20051;-63
2022/07/06 09:13:26;;;;;;;3.83;1.30;;;25.70;73.30;;;;;;5114819;28;20118;-63
2022/07/06 09:15:52;;;;;;;6.40;1.50;;;25.80;76.00;;;;;;5114567;28;20050;-63
2022/07/06 09:18:18;;;;;;;6.15;1.13;;;25.80;72.70;;;;;;5095973;28;20051;-64
2022/07/06 09:20:47;;;;;;;3.80;1.23;;;25.90;71.80;;;;;;5113205;28;20477;-63
2022/07/06 09:23:15;;;;;;;7.88;1.40;;;25.80;72.30;;;;;;5113078;28;20052;-63
2022/07/06 09:25:42;;;;;;;9.60;1.13;;;25.70;71.80;;;;;;5113588;28;20043;-63
2022/07/06 09:28:11;;;;;;;3.55;1.05;;;25.90;71.40;;;;;;5108032;28;20048;-63
2022/07/06 09:30:40;;;;;;;4.43;0.90;;;26.00;70.50;;;;;;5095330;28;20371;-63
2022/07/06 09:33:06;;;;;;;9.70;1.40;;;25.70;70.50;;;;;;5114237;28;20042;-63
2022/07/06 09:35:36;;;;;;;5.30;1.13;;;26.00;71.40;;;;;;5079315;28;20047;-65
2022/07/06 09:38:12;;;;;;;4.40;1.27;;;25.80;71.80;;;;;;5089272;28;20126;-63
2022/07/06 09:40:42;;;;;;;5.00;1.52;;;26.00;70.70;;;;;;5094399;28;20079;-64
2022/07/06 09:43:17;;;;;;;5.22;1.10;;;25.80;71.80;;;;;;5079274;28;20561;-64
2022/07/06 09:45:52;;;;;;;3.17;0.93;;;26.00;70.20;;;;;;5102041;28;20090;-64
2022/07/06 09:48:23;;;;;;;3.83;1.20;;;25.90;70.00;;;;;;5081669;28;20046;-66
2022/07/06 09:50:50;;;;;;;4.05;0.90;;;25.70;71.40;;;;;;5112693;28;20040;-63
2022/07/06 09:53:16;;;;;;;4.25;1.23;;;26.10;71.20;;;;;;5111092;28;20404;-63
2022/07/06 09:55:46;;;;;;;4.18;0.95;;;25.70;70.80;;;;;;5113110;28;20126;-63
2022/07/06 09:58:13;;;;;;;2.97;0.80;;;26.10;71.40;;;;;;5113775;28;20052;-64
2022/07/06 10:00:38;;;;;;;6.32;1.02;;;25.80;70.90;;;;;;5095707;28;20047;-63
2022/07/06 10:03:06;;;;;;;5.43;1.30;;;26.00;70.80;;;;;;5094243;28;20066;-64
2022/07/06 10:05:32;;;;;;;3.63;1.00;;;26.10;73.60;;;;;;5096395;28;20054;-63
2022/07/06 10:07:59;;;;;;;3.67;0.90;;;25.80;70.60;;;;;;5095909;28;20047;-63
2022/07/06 10:10:26;;;;;;;2.95;1.05;;;26.00;71.30;;;;;;5095478;28;20055;-62
2022/07/06 10:12:52;;;;;;;4.90;1.05;;;26.00;71.10;;;;;;5107261;28;20100;-65
2022/07/06 10:15:18;;;;;;;4.78;1.13;;;26.00;70.50;;;;;;5094889;28;20127;-65
2022/07/06 10:17:45;;;;;;;5.75;1.10;;;25.80;70.60;;;;;;5077615;28;20051;-64
2022/07/06 10:20:11;;;;;;;2.53;0.98;;;26.00;71.30;;;;;;5078931;28;20063;-63
2022/07/06 10:22:37;;;;;;;3.05;0.82;;;26.00;70.90;;;;;;5109948;28;20050;-65
2022/07/06 10:25:02;;;;;;;3.95;1.05;;;26.00;70.80;;;;;;5104343;28;20053;-64
2022/07/06 10:27:29;;;;;;;4.32;1.10;;;26.10;70.80;;;;;;5093447;28;20076;-63
2022/07/06 10:29:54;;;;;;;5.45;1.00;;;25.90;70.90;;;;;;5079457;28;20044;-62
2022/07/06 10:32:21;;;;;;;3.33;0.85;;;26.10;71.00;;;;;;5079474;28;20047;-63
2022/07/06 10:34:47;;;;;;;3.25;1.10;;;26.10;74.00;;;;;;5094553;28;20101;-63
2022/07/06 10:37:24;;;;;;;2.88;0.80;;;26.00;71.00;;;;;;5073810;28;20036;-63
2022/07/06 10:42:51;;;;;;;2.58;1.00;;;26.30;70.90;;;;;;5082174;28;20047;-63
2022/07/06 10:45:40;;;;;;;;;;;26.20;69.90;;;;;;5095775;28;20047;-63
2022/07/06 10:48:12;;;;;;;2.25;1.00;;;26.00;69.60;;;;;;5075598;28;20029;-62
2022/07/06 10:50:42;;;;;;;2.63;0.80;;;25.90;70.50;;;;;;5076744;28;20482;-63
2022/07/06 10:53:12;;;;;;;3.75;1.05;;;26.30;71.00;;;;;;5084910;28;20044;-63
2022/07/06 10:55:39;;;;;;;3.55;1.00;;;25.90;70.80;;;;;;5095654;28;20055;-63
2022/07/06 10:58:06;;;;;;;3.85;0.73;;;26.10;70.80;;;;;;5094347;28;20040;-63
2022/07/06 11:00:52;;;;;;;3.75;1.15;;;26.20;70.70;;;;;;5096637;28;20056;-63
2022/07/06 11:03:37;;;;;;;4.65;1.00;;;26.10;71.10;;;;;;5094421;28;20056;-63
2022/07/06 11:06:18;;;;;;;4.50;1.08;;;26.10;69.50;;;;;;5095454;28;20516;-63
2022/07/06 11:09:04;;;;;;;3.53;0.90;;;26.10;69.50;;;;;;5091326;28;20166;-63
2022/07/06 11:11:33;;;;;;;2.03;1.05;;;25.90;70.40;;;;;;5088634;28;20083;-63
2022/07/06 11:14:06;;;;;;;3.67;0.90;;;26.10;70.30;;;;;;5093776;28;20044;-63
2022/07/06 11:16:39;;;;;;;3.13;1.20;;;24.20;68.10;;;;;;5111989;28;20416;-63
2022/07/06 11:19:12;;;;;;;3.22;0.88;;;26.00;71.10;;;;;;5095859;28;20052;-63
2022/07/06 11:21:44;;;;;;;2.10;0.85;;;25.90;69.40;;;;;;5101077;28;20056;-62
2022/07/06 11:24:21;;;;;;;4.35;0.95;;;26.20;69.60;;;;;;5115085;28;20055;-63
2022/07/06 11:26:49;;;;;;;3.38;1.00;;;26.00;70.80;;;;;;5095936;28;20035;-64
2022/07/06 11:29:17;;;;;;;3.55;1.13;;;26.00;70.90;;;;;;5109056;28;20048;-65
2022/07/06 11:31:45;;;;;;;5.13;0.95;;;26.00;70.80;;;;;;5098335;28;20044;-65
2022/07/06 11:34:13;;;;;;;3.60;1.05;;;26.10;70.80;;;;;;5115390;28;20127;-65
2022/07/06 11:36:40;;;;;;;4.88;0.88;;;26.20;70.90;;;;;;5098286;28;20040;-65
2022/07/06 11:39:06;;;;;;;4.50;0.88;;;26.00;70.50;;;;;;5081598;28;20075;-66
2022/07/06 11:41:32;;;;;;;4.30;1.13;;;26.10;70.60;;;;;;5115116;28;20039;-65
2022/07/06 11:43:58;;;;;;;2.33;1.00;;;26.10;70.30;;;;;;5097507;28;20174;-64
2022/07/06 11:46:28;;;;;;;4.50;1.10;;;26.10;70.70;;;;;;5116475;28;20043;-65
2022/07/06 11:48:59;;;;;;;3.83;0.93;;;26.20;71.30;;;;;;5114281;28;20051;-65
2022/07/06 11:51:26;;;;;;;4.03;0.98;;;26.10;71.10;;;;;;5081459;28;20047;-65
2022/07/06 11:53:56;;;;;;;3.10;1.10;;;26.10;71.20;;;;;;5081196;28;20051;-65
2022/07/06 11:56:26;;;;;;;2.97;1.10;;;26.10;71.30;;;;;;5097877;28;20048;-65
2022/07/06 11:58:54;;;;;;;5.28;1.08;;;26.10;71.20;;;;;;5096664;28;20052;-65
2022/07/06 12:01:21;;;;;;;3.08;1.00;;;26.00;71.10;;;;;;5096901;28;20051;-65
2022/07/06 12:03:47;;;;;;;6.35;1.40;;;26.20;71.20;;;;;;5098042;28;20052;-66
2022/07/06 12:06:15;;;;;;;3.38;1.52;;;26.40;71.20;;;;;;5097931;28;20048;-65
2022/07/06 12:08:48;;;;;;;2.83;0.90;;;26.30;71.50;;;;;;5097965;28;20055;-65
2022/07/06 12:11:25;;;;;;;3.60;0.93;;;26.10;69.90;;;;;;5080646;28;20131;-65
2022/07/06 12:13:52;;;;;;;3.08;1.02;;;26.10;71.60;;;;;;5096681;28;20544;-65
2022/07/06 12:16:18;;;;;;;2.33;0.85;;;26.40;71.50;;;;;;5114539;28;20035;-65
2022/07/06 12:18:47;;;;;;;2.17;0.88;;;26.40;71.10;;;;;;5097200;28;20043;-65
2022/07/06 12:21:16;;;;;;;2.00;0.80;;;26.50;71.60;;;;;;5114321;28;20511;-65
2022/07/06 12:23:50;;;;;;;3.70;1.17;;;26.60;71.80;;;;;;5109936;28;20052;-65
2022/07/06 12:26:20;;;;;;;3.10;1.00;;;26.30;71.80;;;;;;5095488;28;20051;-65
2022/07/06 12:28:46;;;;;;;2.08;0.90;;;26.20;71.50;;;;;;5094189;28;20048;-65
2022/07/06 12:31:36;;;;;;;2.08;1.08;;;26.20;71.50;;;;;;5111016;28;20055;-63
2022/07/06 12:34:02;;;;;;;5.80;1.27;;;26.20;70.30;;;;;;5087878;28;20051;-63
2022/07/06 12:36:28;;;;;;;4.03;1.25;;;26.20;71.30;;;;;;5094814;28;20051;-63
2022/07/06 12:38:54;;;;;;;4.10;1.00;;;26.00;71.10;;;;;;5076875;28;20428;-63
2022/07/06 12:41:31;;;;;;;4.15;1.10;;;26.30;71.30;;;;;;5110815;28;20044;-64
2022/07/06 12:44:07;;;;;;;5.53;1.52;;;26.40;72.00;;;;;;5093463;28;20185;-65
2022/07/06 12:46:38;;;;;;;3.42;1.42;;;26.30;71.80;;;;;;5091725;28;20052;-64
2022/07/06 12:49:23;;;;;;;3.35;1.10;;;26.30;71.60;;;;;;5093719;28;20056;-64
2022/07/06 12:51:53;;;;;;;2.55;1.00;;;26.30;71.50;;;;;;5092826;28;20052;-64
2022/07/06 12:54:19;;;;;;;2.78;0.85;;;26.40;71.60;;;;;;5093224;28;20098;-63
2022/07/06 12:57:03;;;;;;;4.72;1.25;;;26.40;71.10;;;;;;5093187;28;20048;-65